createdAt,value
2018-08-25T00:01:55.909Z,14.60
2018-08-25T00:04:25.827Z,14.50
2018-08-25T00:06:55.295Z,14.40
2018-08-25T00:09:24.517Z,14.40
2018-08-25T00:11:53.847Z,14.60
2018-08-25T00:14:23.010Z,14.60
2018-08-25T00:16:52.685Z,14.50
2018-08-25T00:19:22.068Z,14.70
2018-08-25T00:21:51.969Z,14.70
2018-08-25T00:24:21.689Z,14.50
2018-08-25T00:26:50.826Z,14.50
2018-08-25T00:29:20.786Z,14.30
2018-08-25T00:31:52.041Z,14.10
2018-08-25T00:34:22.629Z,14.30
2018-08-25T00:36:52.807Z,14.40
2018-08-25T00:39:23.232Z,14.30
2018-08-25T00:41:52.863Z,14.20
2018-08-25T00:44:22.373Z,14.30
2018-08-25T00:46:52.175Z,14.50
2018-08-25T00:49:21.610Z,14.50
2018-08-25T00:51:51.121Z,14.30
2018-08-25T00:54:20.599Z,14.10
2018-08-25T00:56:50.131Z,14.10
2018-08-25T00:59:19.923Z,14.20
2018-08-25T01:01:49.348Z,14.20
2018-08-25T01:04:18.636Z,14.20
2018-08-25T01:06:48.156Z,14.50
2018-08-25T01:09:17.849Z,14.30
2018-08-25T01:11:47.157Z,14.50
2018-08-25T01:14:16.751Z,14.50
2018-08-25T01:16:46.434Z,14.40
2018-08-25T01:19:16.072Z,14.30
2018-08-25T01:21:45.599Z,14.30
2018-08-25T01:24:15.230Z,14.10
2018-08-25T01:26:44.486Z,14.10
2018-08-25T01:29:13.831Z,14.00
2018-08-25T01:31:43.277Z,14.00
2018-08-25T01:34:12.753Z,14.00
2018-08-25T01:36:42.101Z,14.20
2018-08-25T01:39:11.698Z,14.10
2018-08-25T01:41:41.379Z,14.20
2018-08-25T01:44:11.035Z,14.00
2018-08-25T01:46:40.637Z,14.10
2018-08-25T01:49:10.284Z,14.20
2018-08-25T01:51:39.627Z,14.20
2018-08-25T01:54:09.100Z,14.20
2018-08-25T01:56:38.605Z,14.00
2018-08-25T01:59:08.168Z,13.90
2018-08-25T02:01:37.332Z,14.00
2018-08-25T02:04:07.196Z,14.00
2018-08-25T02:06:36.497Z,13.80
2018-08-25T02:09:11.051Z,13.90
2018-08-25T02:11:40.588Z,14.00
2018-08-25T02:14:10.930Z,13.90
2018-08-25T02:16:41.429Z,14.20
2018-08-25T02:19:11.053Z,14.10
2018-08-25T02:21:40.112Z,14.00
2018-08-25T02:24:09.489Z,14.00
2018-08-25T02:26:38.772Z,13.80
2018-08-25T02:29:08.044Z,13.90
2018-08-25T02:31:37.858Z,13.80
2018-08-25T02:34:07.404Z,13.80
2018-08-25T02:36:37.028Z,13.70
2018-08-25T02:39:10.347Z,13.50
2018-08-25T02:41:39.940Z,13.50
2018-08-25T02:44:09.638Z,13.70
2018-08-25T02:46:39.289Z,13.80
2018-08-25T02:49:08.845Z,13.90
2018-08-25T02:51:38.387Z,14.00
2018-08-25T02:54:08.443Z,14.10
2018-08-25T02:56:38.047Z,13.90
2018-08-25T02:59:07.645Z,13.90
2018-08-25T03:01:38.028Z,13.70
2018-08-25T03:04:07.734Z,13.60
2018-08-25T03:06:37.584Z,13.50
2018-08-25T03:09:10.515Z,13.30
2018-08-25T03:11:40.390Z,13.40
2018-08-25T03:14:10.194Z,13.30
2018-08-25T03:16:39.521Z,13.50
2018-08-25T03:19:08.888Z,13.50
2018-08-25T03:21:38.588Z,13.40
2018-08-25T03:24:08.128Z,13.50
2018-08-25T03:26:37.603Z,13.40
2018-08-25T03:29:07.588Z,13.30
2018-08-25T03:31:36.900Z,13.30
2018-08-25T03:34:06.276Z,13.50
2018-08-25T03:36:35.954Z,13.40
2018-08-25T03:39:08.097Z,13.30
2018-08-25T03:41:38.030Z,13.40
2018-08-25T03:44:07.793Z,13.50
2018-08-25T03:46:37.194Z,13.40
2018-08-25T03:49:06.926Z,13.50
2018-08-25T03:51:36.737Z,13.30
2018-08-25T03:54:06.235Z,13.20
2018-08-25T03:56:35.789Z,13.30
2018-08-25T03:59:05.355Z,13.30
2018-08-25T04:01:35.749Z,13.20
2018-08-25T04:04:05.548Z,13.30
2018-08-25T04:06:35.143Z,13.20
2018-08-25T04:09:07.035Z,13.10
2018-08-25T04:11:36.686Z,13.20
2018-08-25T04:14:06.446Z,13.20
2018-08-25T04:16:36.276Z,13.20
2018-08-25T04:19:06.201Z,13.20
2018-08-25T04:21:35.727Z,13.10
2018-08-25T04:24:05.459Z,13.00
2018-08-25T04:26:34.768Z,13.30
2018-08-25T04:29:04.166Z,13.40
2018-08-25T04:31:33.888Z,13.50
2018-08-25T04:34:03.943Z,13.50
2018-08-25T04:36:33.599Z,13.60
2018-08-25T04:39:03.086Z,13.50
2018-08-25T04:41:33.839Z,13.50
2018-08-25T04:44:03.160Z,13.50
2018-08-25T04:46:32.840Z,13.40
2018-08-25T04:49:02.106Z,13.60
2018-08-25T04:51:31.597Z,13.60
2018-08-25T04:54:01.450Z,13.70
2018-08-25T04:56:30.815Z,13.60
2018-08-25T04:59:00.606Z,13.70
2018-08-25T05:01:30.057Z,13.70
2018-08-25T05:03:59.513Z,13.70
2018-08-25T05:06:28.699Z,13.90
2018-08-25T05:08:58.528Z,13.80
2018-08-25T05:11:27.887Z,13.90
2018-08-25T05:13:57.647Z,13.90
2018-08-25T05:16:27.177Z,14.10
2018-08-25T05:18:56.918Z,14.00
2018-08-25T05:21:27.492Z,14.00
2018-08-25T05:23:57.196Z,14.20
2018-08-25T05:26:26.611Z,14.30
2018-08-25T05:28:56.172Z,14.30
2018-08-25T05:31:25.702Z,14.20
2018-08-25T05:33:55.590Z,14.10
2018-08-25T05:36:24.801Z,14.20
2018-08-25T05:38:54.429Z,14.10
2018-08-25T05:41:23.978Z,14.20
2018-08-25T05:43:53.685Z,14.30
2018-08-25T05:46:23.079Z,14.40
2018-08-25T05:48:52.535Z,14.50
2018-08-25T05:51:22.420Z,14.60
2018-08-25T05:53:52.017Z,14.60
2018-08-25T05:56:21.260Z,14.50
2018-08-25T05:58:51.810Z,14.50
2018-08-25T06:01:21.169Z,14.50
2018-08-25T06:03:50.705Z,14.60
2018-08-25T06:06:20.334Z,14.60
2018-08-25T06:08:49.965Z,14.80
2018-08-25T06:11:19.706Z,14.60
2018-08-25T06:13:49.543Z,14.70
2018-08-25T06:16:18.956Z,14.70
2018-08-25T06:18:49.388Z,14.80
2018-08-25T06:21:18.948Z,14.80
2018-08-25T06:23:48.321Z,14.80
2018-08-25T06:26:17.994Z,14.90
2018-08-25T06:28:47.649Z,14.90
2018-08-25T06:31:17.411Z,15.10
2018-08-25T06:33:47.521Z,15.10
2018-08-25T06:36:17.072Z,15.00
2018-08-25T06:38:46.751Z,15.00
2018-08-25T06:41:16.127Z,15.10
2018-08-25T06:43:45.775Z,15.00
2018-08-25T06:46:15.631Z,15.10
2018-08-25T06:48:45.104Z,15.10
2018-08-25T06:51:14.693Z,15.00
2018-08-25T06:53:43.959Z,15.20
2018-08-25T06:56:13.494Z,15.30
2018-08-25T06:58:43.073Z,14.90
2018-08-25T07:01:12.298Z,15.10
2018-08-25T07:03:42.263Z,15.10
2018-08-25T07:06:11.582Z,15.20
2018-08-25T07:08:41.082Z,15.00
2018-08-25T07:11:10.706Z,15.20
2018-08-25T07:13:40.082Z,15.20
2018-08-25T07:16:09.751Z,15.20
2018-08-25T07:18:39.972Z,15.20
2018-08-25T07:21:09.572Z,15.10
2018-08-25T07:23:39.172Z,15.20
2018-08-25T07:26:08.595Z,15.40
2018-08-25T07:28:38.248Z,15.40
2018-08-25T07:31:07.631Z,15.40
2018-08-25T07:33:37.463Z,15.50
2018-08-25T07:36:07.290Z,15.70
2018-08-25T07:38:36.890Z,15.80
2018-08-25T07:41:06.549Z,16.00
2018-08-25T07:43:35.930Z,16.00
2018-08-25T07:46:05.554Z,16.00
2018-08-25T07:48:35.358Z,15.90
2018-08-25T07:51:04.889Z,16.00
2018-08-25T07:53:34.468Z,15.90
2018-08-25T07:56:04.101Z,16.10
2018-08-25T07:58:33.633Z,16.30
2018-08-25T08:01:03.028Z,16.30
2018-08-25T08:03:32.748Z,16.50
2018-08-25T08:06:02.064Z,16.50
2018-08-25T08:08:31.508Z,16.50
2018-08-25T08:11:01.314Z,16.50
2018-08-25T08:13:30.750Z,16.30
2018-08-25T08:15:59.980Z,16.40
2018-08-25T08:18:29.562Z,16.50
2018-08-25T08:20:59.181Z,16.60
2018-08-25T08:23:28.581Z,16.70
2018-08-25T08:25:58.070Z,16.70
2018-08-25T08:28:27.760Z,16.80
2018-08-25T08:30:57.066Z,16.60
2018-08-25T08:33:26.460Z,16.90
2018-08-25T08:35:55.751Z,17.00
2018-08-25T08:38:25.629Z,17.20
2018-08-25T08:40:55.151Z,17.40
2018-08-25T08:43:24.809Z,17.40
2018-08-25T08:45:54.533Z,17.40
2018-08-25T08:48:24.493Z,17.40
2018-08-25T08:50:54.058Z,17.10
2018-08-25T08:53:23.500Z,17.20
2018-08-25T08:55:53.112Z,17.50
2018-08-25T08:58:22.666Z,17.60
2018-08-25T09:00:52.360Z,17.60
2018-08-25T09:03:21.503Z,17.70
2018-08-25T09:05:51.930Z,17.50
2018-08-25T09:08:21.254Z,17.70
2018-08-25T09:10:51.041Z,17.90
2018-08-25T09:13:20.571Z,18.00
2018-08-25T09:15:50.424Z,18.30
2018-08-25T09:18:20.253Z,18.30
2018-08-25T09:20:49.720Z,18.20
2018-08-25T09:23:19.141Z,18.00
2018-08-25T09:25:49.623Z,18.10
2018-08-25T09:28:19.314Z,18.20
2018-08-25T09:30:48.710Z,18.10
2018-08-25T09:33:18.243Z,18.00
2018-08-25T09:35:47.540Z,18.40
2018-08-25T09:38:17.100Z,18.30
2018-08-25T09:40:46.913Z,18.00
2018-08-25T09:43:16.228Z,17.40
2018-08-25T09:45:45.937Z,17.00
2018-08-25T09:48:15.800Z,17.10
2018-08-25T09:50:45.210Z,17.30
2018-08-25T09:53:14.981Z,17.20
2018-08-25T09:55:44.292Z,17.40
2018-08-25T09:58:13.971Z,17.50
2018-08-25T10:00:43.521Z,17.50
2018-08-25T10:03:12.834Z,17.90
2018-08-25T10:05:42.563Z,18.10
2018-08-25T10:08:12.112Z,18.00
2018-08-25T10:10:41.837Z,18.00
2018-08-25T10:13:11.402Z,18.10
2018-08-25T10:15:41.020Z,18.00
2018-08-25T10:18:10.302Z,18.20
2018-08-25T10:20:39.817Z,18.40
2018-08-25T10:23:09.367Z,18.60
2018-08-25T10:25:38.902Z,18.30
2018-08-25T10:28:08.843Z,18.40
2018-08-25T10:30:38.436Z,18.40
2018-08-25T10:33:08.497Z,18.40
2018-08-25T10:35:38.292Z,18.40
2018-08-25T10:38:07.919Z,18.30
2018-08-25T10:40:37.389Z,18.30
2018-08-25T10:43:07.240Z,18.10
2018-08-25T10:45:36.701Z,18.20
2018-08-25T10:48:06.176Z,18.20
2018-08-25T10:50:36.045Z,18.00
2018-08-25T10:53:05.454Z,18.10
2018-08-25T10:55:35.536Z,18.40
2018-08-25T10:58:05.252Z,18.50
2018-08-25T11:00:35.183Z,18.80
2018-08-25T11:03:04.681Z,18.70
2018-08-25T11:05:33.931Z,18.90
2018-08-25T11:08:03.668Z,18.70
2018-08-25T11:10:33.208Z,18.90
2018-08-25T11:13:03.220Z,19.10
2018-08-25T11:15:32.608Z,19.30
2018-08-25T11:18:02.289Z,19.20
2018-08-25T11:20:31.764Z,18.90
2018-08-25T11:23:01.075Z,18.90
2018-08-25T11:25:31.603Z,19.10
2018-08-25T11:28:01.259Z,19.10
2018-08-25T11:30:30.991Z,18.90
2018-08-25T11:33:00.885Z,19.10
2018-08-25T11:35:30.561Z,19.40
2018-08-25T11:38:00.159Z,19.60
2018-08-25T11:40:29.519Z,19.70
2018-08-25T11:42:59.053Z,19.90
2018-08-25T11:45:28.812Z,20.20
2018-08-25T11:47:58.518Z,20.30
2018-08-25T11:50:27.870Z,20.30
2018-08-25T11:52:57.420Z,20.00
2018-08-25T11:55:27.088Z,20.10
2018-08-25T11:57:56.682Z,20.30
2018-08-25T12:00:26.007Z,20.30
2018-08-25T12:02:55.624Z,20.20
2018-08-25T12:05:25.285Z,20.30
2018-08-25T12:07:54.840Z,20.30
2018-08-25T12:10:24.463Z,20.30
2018-08-25T12:12:53.838Z,20.30
2018-08-25T12:15:23.109Z,20.30
2018-08-25T12:17:52.812Z,20.00
2018-08-25T12:20:22.319Z,20.10
2018-08-25T12:22:51.887Z,19.80
2018-08-25T12:25:21.651Z,20.10
2018-08-25T12:27:51.280Z,20.10
2018-08-25T12:30:20.853Z,20.10
2018-08-25T12:32:50.513Z,20.30
2018-08-25T12:35:19.999Z,19.80
2018-08-25T12:37:50.024Z,20.00
2018-08-25T12:40:19.709Z,19.90
2018-08-25T12:42:49.117Z,19.80
2018-08-25T12:45:19.110Z,20.00
2018-08-25T12:47:48.429Z,19.90
2018-08-25T12:50:17.878Z,19.70
2018-08-25T12:52:47.182Z,19.50
2018-08-25T12:55:16.630Z,19.00
2018-08-25T12:57:45.990Z,19.20
2018-08-25T13:00:15.471Z,19.30
2018-08-25T13:02:45.283Z,19.40
2018-08-25T13:05:14.713Z,19.40
2018-08-25T13:07:44.210Z,19.50
2018-08-25T13:10:13.711Z,19.20
2018-08-25T13:12:43.161Z,19.00
2018-08-25T13:15:12.803Z,18.80
2018-08-25T13:17:42.500Z,18.50
2018-08-25T13:20:12.147Z,18.20
2018-08-25T13:22:42.054Z,18.30
2018-08-25T13:25:11.719Z,18.10
2018-08-25T13:27:40.993Z,18.20
2018-08-25T13:30:10.589Z,18.50
2018-08-25T13:32:40.277Z,18.70
2018-08-25T13:35:10.057Z,18.90
2018-08-25T13:37:39.782Z,18.80
2018-08-25T13:40:09.229Z,18.70
2018-08-25T13:42:38.631Z,19.10
2018-08-25T13:45:08.248Z,19.20
2018-08-25T13:47:37.400Z,18.80
2018-08-25T13:50:07.327Z,18.60
2018-08-25T13:52:36.942Z,18.70
2018-08-25T13:55:06.698Z,18.90
2018-08-25T13:57:36.455Z,19.00
2018-08-25T14:00:06.842Z,18.90
2018-08-25T14:02:36.453Z,18.90
2018-08-25T14:05:05.934Z,19.10
2018-08-25T14:07:35.453Z,18.90
2018-08-25T14:10:04.741Z,19.20
2018-08-25T14:12:34.745Z,18.80
2018-08-25T14:15:04.202Z,18.70
2018-08-25T14:17:33.512Z,18.60
2018-08-25T14:20:02.820Z,18.50
2018-08-25T14:22:32.389Z,18.30
2018-08-25T14:25:01.880Z,18.30
2018-08-25T14:27:31.364Z,18.40
2018-08-25T14:30:01.061Z,18.40
2018-08-25T14:32:30.735Z,18.30
2018-08-25T14:35:00.137Z,18.20
2018-08-25T14:37:29.697Z,18.30
2018-08-25T14:39:59.050Z,18.20
2018-08-25T14:42:28.759Z,18.20
2018-08-25T14:44:58.380Z,18.40
2018-08-25T14:47:27.852Z,18.40
2018-08-25T14:49:57.504Z,18.50
2018-08-25T14:52:26.689Z,18.40
2018-08-25T14:54:56.346Z,18.50
2018-08-25T14:57:26.675Z,18.20
2018-08-25T14:59:56.439Z,18.10
2018-08-25T15:02:26.191Z,18.00
2018-08-25T15:04:55.834Z,18.20
2018-08-25T15:07:25.472Z,18.30
2018-08-25T15:09:55.208Z,18.50
2018-08-25T15:12:24.891Z,18.80
2018-08-25T15:14:54.526Z,19.10
2018-08-25T15:17:23.954Z,19.10
2018-08-25T15:19:53.662Z,19.30
2018-08-25T15:22:23.243Z,19.20
2018-08-25T15:24:52.900Z,19.10
2018-08-25T15:27:22.551Z,19.00
2018-08-25T15:29:52.354Z,19.00
2018-08-25T15:32:22.150Z,18.70
2018-08-25T15:34:51.563Z,18.60
2018-08-25T15:37:20.778Z,18.60
2018-08-25T15:39:51.011Z,18.40
2018-08-25T15:42:20.441Z,18.20
2018-08-25T15:44:49.951Z,18.10
2018-08-25T15:47:19.532Z,18.00
2018-08-25T15:49:48.842Z,18.10
2018-08-25T15:52:18.556Z,18.00
2018-08-25T15:54:48.160Z,18.00
2018-08-25T15:57:17.932Z,18.00
2018-08-25T15:59:47.691Z,17.80
2018-08-25T16:02:17.080Z,17.70
2018-08-25T16:04:46.581Z,17.80
2018-08-25T16:07:16.060Z,17.70
2018-08-25T16:09:45.543Z,17.60
2018-08-25T16:12:15.327Z,17.50
2018-08-25T16:14:44.386Z,17.50
2018-08-25T16:17:14.046Z,17.40
2018-08-25T16:19:43.924Z,17.50
2018-08-25T16:22:13.380Z,17.40
2018-08-25T16:24:43.274Z,17.40
2018-08-25T16:27:13.132Z,17.40
2018-08-25T16:29:44.212Z,17.40
2018-08-25T16:32:13.625Z,17.20
2018-08-25T16:34:43.669Z,17.20
2018-08-25T16:37:13.621Z,17.30
2018-08-25T16:39:43.148Z,17.30
2018-08-25T16:42:12.774Z,17.20
2018-08-25T16:44:42.774Z,17.20
2018-08-25T16:47:11.931Z,17.00
2018-08-25T16:49:41.356Z,17.10
2018-08-25T16:52:11.275Z,17.00
2018-08-25T16:54:41.194Z,17.10
2018-08-25T16:57:10.320Z,17.00
2018-08-25T16:59:39.812Z,17.00
2018-08-25T17:02:09.426Z,17.10
2018-08-25T17:04:38.702Z,17.10
2018-08-25T17:07:08.451Z,17.10
2018-08-25T17:09:37.949Z,16.90
2018-08-25T17:12:07.841Z,16.90
2018-08-25T17:14:37.691Z,16.80
2018-08-25T17:17:08.220Z,16.70
2018-08-25T17:19:37.809Z,16.70
2018-08-25T17:22:08.311Z,16.70
2018-08-25T17:24:37.998Z,16.60
2018-08-25T17:27:07.387Z,16.70
2018-08-25T17:29:36.959Z,16.50
2018-08-25T17:32:06.431Z,16.40
2018-08-25T17:34:35.703Z,16.60
2018-08-25T17:37:05.408Z,16.50
2018-08-25T17:39:34.927Z,16.50
2018-08-25T17:42:04.752Z,16.30
2018-08-25T17:44:34.319Z,16.20
2018-08-25T17:47:03.688Z,16.30
2018-08-25T17:49:33.263Z,16.30
2018-08-25T17:52:02.613Z,16.30
2018-08-25T17:54:32.321Z,16.30
2018-08-25T17:57:01.955Z,16.30
2018-08-25T17:59:31.539Z,16.10
2018-08-25T18:02:01.659Z,16.00
2018-08-25T18:04:31.488Z,16.00
2018-08-25T18:07:01.214Z,16.00
2018-08-25T18:09:30.514Z,16.00
2018-08-25T18:12:00.207Z,16.10
2018-08-25T18:14:30.024Z,16.10
2018-08-25T18:16:59.443Z,16.30
2018-08-25T18:19:28.641Z,16.30
2018-08-25T18:21:58.802Z,16.10
2018-08-25T18:24:28.555Z,16.10
2018-08-25T18:26:58.533Z,16.00
2018-08-25T18:29:27.902Z,15.70
2018-08-25T18:31:57.610Z,16.00
2018-08-25T18:34:27.204Z,16.30
2018-08-25T18:36:56.995Z,16.30
2018-08-25T18:39:26.410Z,16.40
2018-08-25T18:41:55.750Z,16.20
2018-08-25T18:44:25.363Z,16.10
2018-08-25T18:46:54.692Z,15.90
2018-08-25T18:49:23.878Z,16.00
2018-08-25T18:51:53.432Z,15.80
2018-08-25T18:54:23.131Z,15.70
2018-08-25T18:56:52.920Z,15.90
2018-08-25T18:59:22.814Z,15.80
2018-08-25T19:01:52.340Z,15.80
2018-08-25T19:04:21.952Z,15.60
2018-08-25T19:06:51.443Z,15.50
2018-08-25T19:09:20.777Z,15.50
2018-08-25T19:11:50.002Z,15.60
2018-08-25T19:14:19.648Z,15.60
2018-08-25T19:16:49.481Z,15.50
2018-08-25T19:19:18.817Z,15.70
2018-08-25T19:21:48.210Z,15.80
2018-08-25T19:24:17.810Z,15.90
2018-08-25T19:26:46.912Z,16.00
2018-08-25T19:29:16.707Z,16.00
2018-08-25T19:31:46.549Z,15.80
2018-08-25T19:34:16.093Z,15.70
2018-08-25T19:36:45.517Z,15.70
2018-08-25T19:39:15.264Z,15.70
2018-08-25T19:41:45.001Z,15.70
2018-08-25T19:44:14.652Z,15.70
2018-08-25T19:46:44.074Z,15.80
2018-08-25T19:49:14.294Z,15.70
2018-08-25T19:51:43.891Z,15.50
2018-08-25T19:54:13.399Z,15.40
2018-08-25T19:56:42.907Z,15.20
2018-08-25T19:59:13.360Z,15.30
2018-08-25T20:01:42.969Z,15.30
2018-08-25T20:04:12.691Z,15.20
2018-08-25T20:06:42.218Z,15.40
2018-08-25T20:09:11.558Z,15.40
2018-08-25T20:11:41.050Z,15.30
2018-08-25T20:14:11.051Z,15.20
2018-08-25T20:16:40.388Z,15.00
2018-08-25T20:19:09.938Z,15.00
2018-08-25T20:21:39.563Z,14.90
2018-08-25T20:24:08.851Z,15.00
2018-08-25T20:26:38.288Z,15.10
2018-08-25T20:29:08.241Z,15.20
2018-08-25T20:31:37.763Z,15.10
2018-08-25T20:34:07.171Z,14.90
2018-08-25T20:36:36.838Z,14.70
2018-08-25T20:39:08.114Z,14.70
2018-08-25T20:41:37.900Z,14.50
2018-08-25T20:44:07.774Z,14.40
2018-08-25T20:46:37.360Z,14.10
2018-08-25T20:49:07.034Z,14.00
2018-08-25T20:51:36.708Z,13.90
2018-08-25T20:54:06.078Z,13.80
2018-08-25T20:56:35.710Z,13.70
2018-08-25T20:59:04.891Z,13.60
2018-08-25T21:01:34.263Z,13.70
2018-08-25T21:04:03.838Z,13.50
2018-08-25T21:06:33.647Z,13.40
2018-08-25T21:09:03.042Z,13.40
2018-08-25T21:11:32.839Z,13.50
2018-08-25T21:14:02.482Z,13.70
2018-08-25T21:16:31.789Z,14.00
2018-08-25T21:19:01.723Z,14.50
2018-08-25T21:21:31.193Z,14.30
2018-08-25T21:24:00.830Z,13.70
2018-08-25T21:26:30.130Z,13.80
2018-08-25T21:28:59.751Z,13.80
2018-08-25T21:31:29.185Z,13.80
2018-08-25T21:33:58.729Z,13.70
2018-08-25T21:36:27.960Z,13.70
2018-08-25T21:38:57.995Z,14.00
2018-08-25T21:41:27.701Z,13.90
2018-08-25T21:43:56.979Z,13.60
2018-08-25T21:46:26.691Z,13.30
2018-08-25T21:48:56.218Z,13.10
2018-08-25T21:51:25.620Z,13.10
2018-08-25T21:53:55.465Z,13.50
2018-08-25T21:56:25.030Z,13.10
2018-08-25T21:58:54.713Z,13.10
2018-08-25T22:01:25.135Z,13.20
2018-08-25T22:03:55.707Z,13.40
2018-08-25T22:06:24.800Z,13.30
2018-08-25T22:08:54.206Z,13.10
2018-08-25T22:11:23.969Z,13.20
2018-08-25T22:13:53.289Z,13.30
2018-08-25T22:16:23.257Z,13.30
2018-08-25T22:18:53.129Z,13.40
2018-08-25T22:21:22.835Z,13.60
2018-08-25T22:23:52.839Z,13.50
2018-08-25T22:26:23.674Z,13.80
2018-08-25T22:28:54.474Z,14.10
2018-08-25T22:31:24.798Z,14.40
2018-08-25T22:33:54.165Z,14.50
2018-08-25T22:36:23.608Z,14.60
2018-08-25T22:38:53.430Z,14.40
2018-08-25T22:41:23.458Z,14.00
2018-08-25T22:43:53.093Z,13.80
2018-08-25T22:46:22.755Z,13.90
2018-08-25T22:48:52.261Z,13.50
2018-08-25T22:51:21.746Z,13.30
2018-08-25T22:53:51.533Z,13.10
2018-08-25T22:56:21.309Z,13.30
2018-08-25T22:58:50.920Z,13.20
2018-08-25T23:01:20.279Z,13.00
2018-08-25T23:03:49.725Z,12.90
2018-08-25T23:06:19.478Z,13.10
2018-08-25T23:08:49.092Z,13.10
2018-08-25T23:11:19.597Z,13.00
2018-08-25T23:13:49.241Z,13.10
2018-08-25T23:16:18.630Z,13.30
2018-08-25T23:18:48.213Z,13.20
2018-08-25T23:21:17.423Z,13.10
2018-08-25T23:23:47.012Z,13.10
2018-08-25T23:26:16.345Z,13.20
2018-08-25T23:28:46.031Z,13.40
2018-08-25T23:31:16.323Z,13.20
2018-08-25T23:33:45.796Z,13.30
2018-08-25T23:36:15.213Z,13.40
2018-08-25T23:38:44.751Z,13.60
2018-08-25T23:41:14.255Z,13.80
2018-08-25T23:43:43.898Z,13.70
2018-08-25T23:46:13.490Z,13.80
2018-08-25T23:48:43.088Z,13.80
2018-08-25T23:51:12.773Z,13.80
2018-08-25T23:53:42.492Z,13.50
2018-08-25T23:56:11.880Z,13.60
2018-08-25T23:58:41.550Z,13.90
